createdAt,value
2022-10-20T00:01:13.269Z,7.80
2022-10-20T00:03:41.675Z,7.80
2022-10-20T00:06:12.508Z,7.70
2022-10-20T00:08:41.945Z,7.70
2022-10-20T00:11:12.066Z,7.80
2022-10-20T00:13:41.461Z,7.70
2022-10-20T00:16:10.294Z,7.70
2022-10-20T00:18:40.070Z,7.70
2022-10-20T00:21:09.980Z,7.70
2022-10-20T00:23:38.413Z,7.70
2022-10-20T00:26:08.460Z,7.70
2022-10-20T00:28:36.710Z,7.70
2022-10-20T00:31:05.750Z,7.70
2022-10-20T00:33:34.976Z,7.70
2022-10-20T00:36:06.484Z,7.70
2022-10-20T00:38:35.955Z,7.70
2022-10-20T00:41:04.202Z,7.70
2022-10-20T00:43:47.631Z,7.70
2022-10-20T00:46:18.960Z,7.70
2022-10-20T00:48:50.166Z,7.70
2022-10-20T00:51:23.478Z,7.70
2022-10-20T00:53:53.777Z,7.70
2022-10-20T00:56:23.674Z,7.60
2022-10-20T00:58:52.387Z,7.60
2022-10-20T01:01:20.705Z,7.60
2022-10-20T01:03:50.434Z,7.60
2022-10-20T01:06:23.202Z,7.60
2022-10-20T01:08:52.283Z,7.60
2022-10-20T01:11:30.784Z,7.60
2022-10-20T01:14:16.185Z,7.60
2022-10-20T01:16:57.423Z,7.50
2022-10-20T01:20:10.563Z,7.60
2022-10-20T01:23:07.542Z,7.60
2022-10-20T01:25:55.167Z,7.50
2022-10-20T01:28:33.561Z,7.60
2022-10-20T01:31:05.455Z,7.60
2022-10-20T01:33:42.596Z,7.60
2022-10-20T01:36:15.318Z,7.60
2022-10-20T01:38:49.782Z,7.60
2022-10-20T01:41:23.022Z,7.60
2022-10-20T01:43:53.520Z,7.60
2022-10-20T01:46:25.201Z,7.60
2022-10-20T01:48:53.721Z,7.60
2022-10-20T01:51:21.907Z,7.60
2022-10-20T01:53:50.062Z,7.60
2022-10-20T01:56:24.273Z,7.60
2022-10-20T01:59:20.569Z,7.60
2022-10-20T02:02:17.539Z,7.50
2022-10-20T02:05:03.888Z,7.50
2022-10-20T02:07:34.183Z,7.50
2022-10-20T02:10:10.546Z,7.50
2022-10-20T02:12:42.775Z,7.50
2022-10-20T02:15:17.183Z,7.50
2022-10-20T02:17:49.260Z,7.50
2022-10-20T02:20:18.170Z,7.50
2022-10-20T02:22:46.802Z,7.50
2022-10-20T02:25:15.392Z,7.50
2022-10-20T02:27:47.723Z,7.40
2022-10-20T02:30:19.339Z,7.50
2022-10-20T02:32:52.615Z,7.50
2022-10-20T02:35:23.605Z,7.50
2022-10-20T02:37:52.249Z,7.40
2022-10-20T02:40:22.261Z,7.50
2022-10-20T02:42:50.771Z,7.50
2022-10-20T02:45:20.449Z,7.50
2022-10-20T02:47:48.709Z,7.50
2022-10-20T02:50:17.195Z,7.50
2022-10-20T02:52:45.398Z,7.40
2022-10-20T02:55:13.594Z,7.40
2022-10-20T02:57:41.803Z,7.40
2022-10-20T03:00:11.231Z,7.50
2022-10-20T03:02:40.839Z,7.50
2022-10-20T03:05:09.693Z,7.50
2022-10-20T03:07:38.256Z,7.50
2022-10-20T03:10:07.279Z,7.60
2022-10-20T03:12:35.445Z,7.50
2022-10-20T03:15:03.634Z,7.50
2022-10-20T03:17:31.777Z,7.50
2022-10-20T03:20:01.423Z,7.50
2022-10-20T03:25:02.683Z,7.50
2022-10-20T03:27:30.843Z,7.50
2022-10-20T03:29:59.035Z,7.40
2022-10-20T03:32:27.193Z,7.40
2022-10-20T03:34:55.469Z,7.40
2022-10-20T03:37:25.054Z,7.40
2022-10-20T03:39:53.202Z,7.40
2022-10-20T03:42:21.390Z,7.40
2022-10-20T03:44:49.530Z,7.40
2022-10-20T03:47:17.706Z,7.50
2022-10-20T03:49:45.862Z,7.40
2022-10-20T03:52:14.037Z,7.40
2022-10-20T03:54:44.119Z,7.40
2022-10-20T03:57:12.374Z,7.40
2022-10-20T03:59:40.640Z,7.40
2022-10-20T04:02:08.866Z,7.40
2022-10-20T04:04:37.094Z,7.40
2022-10-20T04:07:05.295Z,7.40
2022-10-20T04:09:33.421Z,7.40
2022-10-20T04:12:04.069Z,7.40
2022-10-20T04:14:32.236Z,7.40
2022-10-20T04:17:00.373Z,7.30
2022-10-20T04:19:30.017Z,7.30
2022-10-20T04:21:58.187Z,7.30
2022-10-20T04:24:26.437Z,7.30
2022-10-20T04:26:54.576Z,7.30
2022-10-20T04:29:24.128Z,7.30
2022-10-20T04:31:52.758Z,7.30
2022-10-20T04:34:21.098Z,7.30
2022-10-20T04:36:49.265Z,7.30
2022-10-20T04:39:18.343Z,7.30
2022-10-20T04:41:46.508Z,7.30
2022-10-20T04:44:14.990Z,7.30
2022-10-20T04:46:44.566Z,7.40
2022-10-20T04:49:12.765Z,7.30
2022-10-20T04:51:40.967Z,7.30
2022-10-20T04:54:09.106Z,7.20
2022-10-20T04:56:37.455Z,7.20
2022-10-20T04:59:09.509Z,7.30
2022-10-20T05:01:40.876Z,7.30
2022-10-20T05:04:10.576Z,7.20
2022-10-20T05:06:39.126Z,7.20
2022-10-20T05:09:08.606Z,7.20
2022-10-20T05:11:38.342Z,7.10
2022-10-20T05:14:07.232Z,7.10
2022-10-20T05:16:36.002Z,7.10
2022-10-20T05:19:04.278Z,7.10
2022-10-20T05:21:34.571Z,7.20
2022-10-20T05:24:04.711Z,7.30
2022-10-20T05:26:37.833Z,7.20
2022-10-20T05:29:08.560Z,7.20
2022-10-20T05:31:38.692Z,7.20
2022-10-20T05:34:07.083Z,7.30
2022-10-20T05:36:36.834Z,7.30
2022-10-20T05:39:05.572Z,7.30
2022-10-20T05:41:38.012Z,7.30
2022-10-20T05:44:09.623Z,7.30
2022-10-20T05:46:41.461Z,7.30
2022-10-20T05:49:14.131Z,7.30
2022-10-20T05:51:44.589Z,7.30
2022-10-20T05:54:13.885Z,7.40
2022-10-20T05:56:42.432Z,7.40
2022-10-20T05:59:11.835Z,7.50
2022-10-20T06:01:48.303Z,7.50
2022-10-20T06:04:18.457Z,7.50
2022-10-20T06:06:48.976Z,7.50
2022-10-20T06:09:17.432Z,7.50
2022-10-20T06:11:45.714Z,7.50
2022-10-20T06:14:14.255Z,7.50
2022-10-20T06:16:42.473Z,7.50
2022-10-20T06:19:10.853Z,7.50
2022-10-20T06:21:39.663Z,7.60
2022-10-20T06:24:10.426Z,7.60
2022-10-20T06:26:40.081Z,7.60
2022-10-20T06:29:10.959Z,7.60
2022-10-20T06:31:41.136Z,7.60
2022-10-20T06:34:12.681Z,7.70
2022-10-20T06:36:42.194Z,7.70
2022-10-20T06:39:13.671Z,7.70
2022-10-20T06:41:42.579Z,7.80
2022-10-20T06:44:20.237Z,7.80
2022-10-20T06:46:48.444Z,7.80
2022-10-20T06:49:16.677Z,7.90
2022-10-20T06:51:44.886Z,7.90
2022-10-20T06:54:14.603Z,7.90
2022-10-20T06:56:42.825Z,8.00
2022-10-20T06:59:11.716Z,8.00
2022-10-20T07:01:40.660Z,8.00
2022-10-20T07:04:12.261Z,8.00
2022-10-20T07:06:42.234Z,8.10
2022-10-20T07:09:14.933Z,8.20
2022-10-20T07:11:43.831Z,8.20
2022-10-20T07:14:14.014Z,8.20
2022-10-20T07:16:42.727Z,8.30
2022-10-20T07:19:11.003Z,8.30
2022-10-20T07:21:42.987Z,8.30
2022-10-20T07:24:16.707Z,8.40
2022-10-20T07:26:45.015Z,8.40
2022-10-20T07:29:14.776Z,8.50
2022-10-20T07:31:45.895Z,8.50
2022-10-20T07:34:26.453Z,8.60
2022-10-20T07:36:56.191Z,8.60
2022-10-20T07:39:27.102Z,8.60
2022-10-20T07:41:55.474Z,8.70
2022-10-20T07:44:23.734Z,8.80
2022-10-20T07:46:51.894Z,8.80
2022-10-20T07:52:08.181Z,8.90
2022-10-20T07:54:37.828Z,9.00
2022-10-20T07:57:05.965Z,9.00
2022-10-20T07:59:34.648Z,9.10
2022-10-20T08:02:03.059Z,9.10
2022-10-20T08:04:32.032Z,9.20
2022-10-20T08:07:01.019Z,9.30
2022-10-20T08:09:29.450Z,9.30
2022-10-20T08:11:59.069Z,9.40
2022-10-20T08:14:31.797Z,9.40
2022-10-20T08:17:02.100Z,9.50
2022-10-20T08:22:19.940Z,9.70
2022-10-20T08:24:48.612Z,9.80
2022-10-20T08:27:18.164Z,9.80
2022-10-20T08:29:54.996Z,9.90
2022-10-20T08:32:29.166Z,10.00
2022-10-20T08:34:57.349Z,10.20
2022-10-20T08:37:25.577Z,10.20
2022-10-20T08:39:53.801Z,10.30
2022-10-20T08:42:23.771Z,10.40
2022-10-20T08:44:52.401Z,10.50
2022-10-20T08:47:30.840Z,10.60
2022-10-20T08:50:02.092Z,10.70
2022-10-20T08:52:32.135Z,10.80
2022-10-20T08:55:00.798Z,10.90
2022-10-20T08:57:35.974Z,11.00
2022-10-20T09:00:15.493Z,11.00
2022-10-20T09:02:44.329Z,11.10
2022-10-20T09:05:16.832Z,11.30
2022-10-20T09:07:48.482Z,11.30
2022-10-20T09:10:30.198Z,11.50
2022-10-20T09:13:00.730Z,11.50
2022-10-20T09:15:29.669Z,11.70
2022-10-20T09:18:01.700Z,11.70
2022-10-20T09:20:34.292Z,11.80
2022-10-20T09:23:07.989Z,11.90
2022-10-20T09:25:46.057Z,12.00
2022-10-20T09:28:23.580Z,12.10
2022-10-20T09:30:52.027Z,12.20
2022-10-20T09:33:28.953Z,12.30
2022-10-20T09:36:03.319Z,12.40
2022-10-20T09:38:33.082Z,12.50
2022-10-20T09:41:12.631Z,12.50
2022-10-20T09:43:53.172Z,12.60
2022-10-20T09:46:26.659Z,12.60
2022-10-20T09:48:55.743Z,12.70
2022-10-20T09:51:26.072Z,12.80
2022-10-20T09:53:58.550Z,12.80
2022-10-20T09:56:29.102Z,13.00
2022-10-20T09:59:00.560Z,13.00
2022-10-20T10:01:29.178Z,13.10
2022-10-20T10:04:01.878Z,13.10
2022-10-20T10:06:41.013Z,13.10
2022-10-20T10:09:26.667Z,13.20
2022-10-20T10:12:00.630Z,13.30
2022-10-20T10:14:33.251Z,13.30
2022-10-20T10:17:02.184Z,13.40
2022-10-20T10:19:32.236Z,13.50
2022-10-20T10:22:02.939Z,13.50
2022-10-20T10:24:40.121Z,13.60
2022-10-20T10:27:24.067Z,13.60
2022-10-20T10:29:54.231Z,13.70
2022-10-20T10:32:26.399Z,13.70
2022-10-20T10:35:21.055Z,13.80
2022-10-20T10:37:49.971Z,13.90
2022-10-20T10:40:20.091Z,13.90
2022-10-20T10:43:08.658Z,13.90
2022-10-20T10:45:49.643Z,14.10
2022-10-20T10:48:49.340Z,14.10
2022-10-20T10:51:28.125Z,14.20
2022-10-20T10:54:11.771Z,14.30
2022-10-20T10:56:45.665Z,14.30
2022-10-20T10:59:19.768Z,14.40
2022-10-20T11:02:29.313Z,14.30
2022-10-20T11:05:34.715Z,14.40
2022-10-20T11:08:14.391Z,14.30
2022-10-20T11:10:51.249Z,14.20
2022-10-20T11:13:27.110Z,14.30
2022-10-20T11:16:17.051Z,14.20
2022-10-20T11:19:23.192Z,14.30
2022-10-20T11:22:03.936Z,14.30
2022-10-20T11:24:53.733Z,14.30
2022-10-20T11:27:27.718Z,14.50
2022-10-20T11:30:04.891Z,14.60
2022-10-20T11:32:38.872Z,14.60
2022-10-20T11:35:17.059Z,14.70
2022-10-20T11:37:51.455Z,14.70
2022-10-20T11:40:25.311Z,14.70
2022-10-20T11:43:00.275Z,14.70
2022-10-20T11:45:37.068Z,14.70
2022-10-20T11:48:13.785Z,14.70
2022-10-20T11:50:48.926Z,14.70
2022-10-20T11:53:36.872Z,14.70
2022-10-20T11:56:22.645Z,14.60
2022-10-20T11:59:13.598Z,14.50
2022-10-20T12:01:57.331Z,14.40
2022-10-20T12:05:05.053Z,14.40
2022-10-20T12:07:51.533Z,14.30
2022-10-20T12:10:36.100Z,14.20
2022-10-20T12:13:16.960Z,14.10
2022-10-20T12:15:49.797Z,14.10
2022-10-20T12:18:25.135Z,14.10
2022-10-20T12:20:56.385Z,14.10
2022-10-20T12:24:05.525Z,14.10
2022-10-20T12:27:28.260Z,14.10
2022-10-20T12:30:02.705Z,14.00
2022-10-20T12:32:58.441Z,14.10
2022-10-20T12:36:01.752Z,14.10
2022-10-20T12:38:32.856Z,14.10
2022-10-20T12:41:02.344Z,14.10
2022-10-20T12:43:37.607Z,14.10
2022-10-20T12:46:10.536Z,14.10
2022-10-20T12:48:45.791Z,14.10
2022-10-20T12:51:24.743Z,14.10
2022-10-20T12:53:59.071Z,14.10
2022-10-20T12:56:33.829Z,14.10
2022-10-20T12:59:34.827Z,14.10
2022-10-20T13:02:36.700Z,14.10
2022-10-20T13:05:27.944Z,14.20
2022-10-20T13:08:22.594Z,14.20
2022-10-20T13:10:53.781Z,14.10
2022-10-20T13:14:00.039Z,14.10
2022-10-20T13:16:34.070Z,14.10
2022-10-20T13:19:02.662Z,14.10
2022-10-20T13:21:34.757Z,14.10
2022-10-20T13:24:16.555Z,14.10
2022-10-20T13:26:56.229Z,14.10
2022-10-20T13:29:28.638Z,14.10
2022-10-20T13:32:14.073Z,14.10
2022-10-20T13:34:50.081Z,14.00
2022-10-20T13:37:34.918Z,14.00
2022-10-20T13:40:12.085Z,13.90
2022-10-20T13:42:52.789Z,13.90
2022-10-20T13:45:32.495Z,13.90
2022-10-20T13:48:13.173Z,14.00
2022-10-20T13:50:44.139Z,13.90
2022-10-20T13:53:22.231Z,13.90
2022-10-20T13:56:01.544Z,14.00
2022-10-20T13:58:29.783Z,14.00
2022-10-20T14:01:01.684Z,14.00
2022-10-20T14:03:32.015Z,14.00
2022-10-20T14:06:00.355Z,14.00
2022-10-20T14:08:30.646Z,14.00
2022-10-20T14:11:01.202Z,14.00
2022-10-20T14:13:34.418Z,14.00
2022-10-20T14:16:05.741Z,14.00
2022-10-20T14:18:39.397Z,14.10
2022-10-20T14:21:15.390Z,14.10
2022-10-20T14:23:47.031Z,14.20
2022-10-20T14:26:17.253Z,14.20
2022-10-20T14:28:46.447Z,14.30
2022-10-20T14:31:15.839Z,14.30
2022-10-20T14:33:46.579Z,14.40
2022-10-20T14:36:21.908Z,14.50
2022-10-20T14:38:53.599Z,14.50
2022-10-20T14:41:30.034Z,14.50
2022-10-20T14:44:05.035Z,14.60
2022-10-20T14:46:38.267Z,14.60
2022-10-20T14:49:14.917Z,14.60
2022-10-20T14:51:47.647Z,14.60
2022-10-20T14:54:32.504Z,14.70
2022-10-20T14:57:02.972Z,14.80
2022-10-20T14:59:33.346Z,14.90
2022-10-20T15:02:10.275Z,14.90
2022-10-20T15:04:40.175Z,14.90
2022-10-20T15:07:15.198Z,14.90
2022-10-20T15:09:47.370Z,14.90
2022-10-20T15:12:18.693Z,14.90
2022-10-20T15:14:49.886Z,14.90
2022-10-20T15:17:36.452Z,14.90
2022-10-20T15:20:34.072Z,14.90
2022-10-20T15:23:04.246Z,15.00
2022-10-20T15:25:42.594Z,15.00
2022-10-20T15:28:26.177Z,15.00
2022-10-20T15:30:54.599Z,15.00
2022-10-20T15:33:23.054Z,15.00
2022-10-20T15:35:52.923Z,15.00
2022-10-20T15:38:21.805Z,14.90
2022-10-20T15:40:51.496Z,14.80
2022-10-20T15:43:20.334Z,14.80
2022-10-20T15:45:54.005Z,14.70
2022-10-20T15:48:23.915Z,14.70
2022-10-20T15:50:53.084Z,14.60
2022-10-20T15:53:21.507Z,14.50
2022-10-20T15:55:51.043Z,14.50
2022-10-20T15:58:19.283Z,14.50
2022-10-20T16:00:47.500Z,14.50
2022-10-20T16:03:18.192Z,14.40
2022-10-20T16:05:47.069Z,14.40
2022-10-20T16:10:48.636Z,14.30
2022-10-20T16:13:21.142Z,14.30
2022-10-20T16:15:49.355Z,14.30
2022-10-20T16:18:17.459Z,14.30
2022-10-20T16:20:46.195Z,14.20
2022-10-20T16:23:14.385Z,14.20
2022-10-20T16:25:42.561Z,14.20
2022-10-20T16:28:10.990Z,14.20
2022-10-20T16:30:40.553Z,14.10
2022-10-20T16:33:08.778Z,14.10
2022-10-20T16:35:43.269Z,14.10
2022-10-20T16:38:11.880Z,14.00
2022-10-20T16:40:40.035Z,14.10
2022-10-20T16:43:08.178Z,14.00
2022-10-20T16:45:41.724Z,14.00
2022-10-20T16:48:09.949Z,14.00
2022-10-20T16:50:42.705Z,13.90
2022-10-20T16:53:11.246Z,13.90
2022-10-20T16:55:39.388Z,13.90
2022-10-20T16:58:07.726Z,13.80
2022-10-20T17:00:36.029Z,13.80
2022-10-20T17:03:05.621Z,13.70
2022-10-20T17:05:33.898Z,13.70
2022-10-20T17:08:02.818Z,13.60
2022-10-20T17:10:30.974Z,13.60
2022-10-20T17:12:59.147Z,13.60
2022-10-20T17:15:28.217Z,13.60
2022-10-20T17:17:56.388Z,13.50
2022-10-20T17:20:25.960Z,13.40
2022-10-20T17:22:56.221Z,13.40
2022-10-20T17:25:24.402Z,13.40
2022-10-20T17:27:52.571Z,13.30
2022-10-20T17:30:20.781Z,13.30
2022-10-20T17:32:48.901Z,13.30
2022-10-20T17:35:17.292Z,13.20
2022-10-20T17:37:46.950Z,13.20
2022-10-20T17:40:15.260Z,13.10
2022-10-20T17:42:43.418Z,13.10
2022-10-20T17:45:12.056Z,13.10
2022-10-20T17:47:40.219Z,13.00
2022-10-20T17:52:42.280Z,13.00
2022-10-20T17:55:11.806Z,13.00
2022-10-20T17:57:40.092Z,13.00
2022-10-20T18:00:14.430Z,13.00
2022-10-20T18:02:48.947Z,13.00
2022-10-20T18:05:17.325Z,13.00
2022-10-20T18:07:45.963Z,13.00
2022-10-20T18:10:15.586Z,12.80
2022-10-20T18:12:43.775Z,12.80
2022-10-20T18:15:11.930Z,12.80
2022-10-20T18:17:40.254Z,12.70
2022-10-20T18:20:08.982Z,12.80
2022-10-20T18:22:37.427Z,12.70
2022-10-20T18:25:07.463Z,12.60
2022-10-20T18:27:37.064Z,12.70
2022-10-20T18:30:06.008Z,12.60
2022-10-20T18:32:36.534Z,12.60
2022-10-20T18:35:05.412Z,12.60
2022-10-20T18:37:33.824Z,12.60
2022-10-20T18:40:02.863Z,12.70
2022-10-20T18:42:31.105Z,12.80
2022-10-20T18:45:00.762Z,12.80
2022-10-20T18:47:29.220Z,12.90
2022-10-20T18:49:57.418Z,12.90
2022-10-20T18:52:25.596Z,13.00
2022-10-20T18:54:54.940Z,13.00
2022-10-20T18:57:23.262Z,13.00
2022-10-20T18:59:52.046Z,13.00
2022-10-20T19:02:21.727Z,13.10
2022-10-20T19:04:50.042Z,13.20
2022-10-20T19:07:18.260Z,13.20
2022-10-20T19:09:46.436Z,13.20
2022-10-20T19:12:14.636Z,13.10
2022-10-20T19:14:42.984Z,13.10
2022-10-20T19:17:11.539Z,13.00
2022-10-20T19:19:43.163Z,13.00
2022-10-20T19:22:11.680Z,13.00
2022-10-20T19:24:40.742Z,13.10
2022-10-20T19:27:38.747Z,13.10
2022-10-20T19:29:57.406Z,13.10
2022-10-20T19:32:25.566Z,13.10
2022-10-20T19:34:55.166Z,13.00
2022-10-20T19:37:24.327Z,12.90
2022-10-20T19:39:52.620Z,12.90
2022-10-20T19:42:20.807Z,13.00
2022-10-20T19:44:49.133Z,12.90
2022-10-20T19:47:17.397Z,12.80
2022-10-20T19:49:48.680Z,12.80
2022-10-20T19:52:18.204Z,12.80
2022-10-20T19:54:46.508Z,12.70
2022-10-20T19:57:14.698Z,12.70
2022-10-20T19:59:42.826Z,12.60
2022-10-20T20:02:12.914Z,12.60
2022-10-20T20:04:41.358Z,12.50
2022-10-20T20:07:09.569Z,12.50
2022-10-20T20:09:39.306Z,12.50
2022-10-20T20:12:07.480Z,12.40
2022-10-20T20:14:35.657Z,12.40
2022-10-20T20:17:06.227Z,12.30
2022-10-20T20:19:37.199Z,12.20
2022-10-20T20:22:05.500Z,12.20
2022-10-20T20:24:33.862Z,12.00
2022-10-20T20:27:03.698Z,12.00
2022-10-20T20:29:32.013Z,11.90
2022-10-20T20:32:00.245Z,11.90
2022-10-20T20:34:28.557Z,11.90
2022-10-20T20:36:56.751Z,11.80
2022-10-20T20:39:25.149Z,11.90
2022-10-20T20:41:53.397Z,11.90
2022-10-20T20:46:56.171Z,11.80
2022-10-20T20:49:24.341Z,11.80
2022-10-20T20:51:52.532Z,11.80
2022-10-20T20:54:20.866Z,11.70
2022-10-20T20:56:49.404Z,11.70
2022-10-20T20:59:17.669Z,11.60
2022-10-20T21:01:47.481Z,11.60
2022-10-20T21:04:15.954Z,11.60
2022-10-20T21:07:01.066Z,11.60
2022-10-20T21:09:30.480Z,11.60
2022-10-20T21:11:58.713Z,11.60
2022-10-20T21:14:27.131Z,11.60
2022-10-20T21:16:56.884Z,11.70
2022-10-20T21:19:25.259Z,11.60
2022-10-20T21:21:57.372Z,11.80
2022-10-20T21:24:26.649Z,11.90
2022-10-20T21:26:55.302Z,11.80
2022-10-20T21:29:23.509Z,12.00
2022-10-20T21:31:51.970Z,12.00
2022-10-20T21:34:21.477Z,11.90
2022-10-20T21:36:49.704Z,11.90
2022-10-20T21:39:18.167Z,11.90
2022-10-20T21:41:47.233Z,12.00
2022-10-20T21:44:15.911Z,11.90
2022-10-20T21:46:47.853Z,11.80
2022-10-20T21:49:18.472Z,11.70
2022-10-20T21:51:49.875Z,11.70
2022-10-20T21:56:50.323Z,11.70
2022-10-20T21:59:20.317Z,11.60
2022-10-20T22:01:49.534Z,11.60
2022-10-20T22:04:18.274Z,11.70
2022-10-20T22:06:48.366Z,11.80
2022-10-20T22:09:17.589Z,11.80
2022-10-20T22:11:50.499Z,11.60
2022-10-20T22:14:19.022Z,11.60
2022-10-20T22:16:47.319Z,11.50
2022-10-20T22:19:17.259Z,11.50
2022-10-20T22:21:49.124Z,11.50
2022-10-20T22:24:18.627Z,11.50
2022-10-20T22:26:47.693Z,11.50
2022-10-20T22:29:15.961Z,11.50
2022-10-20T22:31:44.207Z,11.40
2022-10-20T22:34:12.470Z,11.30
2022-10-20T22:36:41.021Z,11.30
2022-10-20T22:39:10.869Z,11.30
2022-10-20T22:41:39.025Z,11.40
2022-10-20T22:44:07.805Z,11.40
2022-10-20T22:46:36.090Z,11.40
2022-10-20T22:49:04.391Z,11.40
2022-10-20T22:51:32.555Z,11.50
2022-10-20T22:54:00.715Z,11.50
2022-10-20T22:56:30.252Z,11.60
2022-10-20T22:58:58.467Z,11.60
2022-10-20T23:01:26.689Z,11.60
2022-10-20T23:03:55.058Z,11.60
2022-10-20T23:06:25.703Z,11.60
2022-10-20T23:08:56.542Z,11.80
2022-10-20T23:11:25.070Z,11.80
2022-10-20T23:13:54.981Z,11.80
2022-10-20T23:18:57.958Z,12.00
2022-10-20T23:21:26.494Z,12.00
2022-10-20T23:23:54.612Z,12.10
2022-10-20T23:26:23.449Z,12.50
2022-10-20T23:28:51.666Z,12.60
2022-10-20T23:31:23.014Z,12.70
2022-10-20T23:33:56.305Z,12.90
2022-10-20T23:36:24.993Z,13.00
2022-10-20T23:38:53.168Z,13.10
2022-10-20T23:41:21.436Z,13.30
2022-10-20T23:43:49.691Z,13.40
2022-10-20T23:46:17.895Z,13.40
2022-10-20T23:48:47.476Z,13.40
2022-10-20T23:51:15.721Z,13.50
2022-10-20T23:53:44.167Z,13.50
2022-10-20T23:56:12.367Z,13.50
2022-10-20T23:58:40.527Z,13.50
